Terminal Aerodrome Forecast
Issued by NWS Louisville, KY

Home | Current Version | Previous Version | Graphics & Text | Print | Product List | Glossary On
Versions: 1 2 3 4 5 6 7 8 9 10 11 12 13
114
FTUS43 KLMK 251131
TAFSDF
TAF
KSDF 251131Z 2512/2618 VRB03KT P6SM FEW250
     FM251700 08004KT P6SM FEW250
     FM260100 00000KT P6SM FEW250=

USA.gov is the U.S. government's official web portal to all federal, state and local government web resources and services.